createdAt,value
2022-10-17T00:02:23.133Z,13.11
2022-10-17T00:07:23.092Z,13.01
2022-10-17T00:12:23.020Z,13.01
2022-10-17T00:17:22.958Z,13.06
2022-10-17T00:22:22.985Z,12.95
2022-10-17T00:27:22.826Z,12.95
2022-10-17T00:32:22.766Z,13.04
2022-10-17T00:37:22.708Z,12.98
2022-10-17T00:42:22.632Z,12.93
2022-10-17T00:47:22.580Z,12.81
2022-10-17T00:52:22.539Z,12.73
2022-10-17T00:57:22.447Z,12.61
2022-10-17T01:02:22.397Z,12.62
2022-10-17T01:07:22.324Z,12.66
2022-10-17T01:12:22.272Z,12.71
2022-10-17T01:17:22.221Z,12.65
2022-10-17T01:22:22.131Z,12.59
2022-10-17T01:27:22.075Z,12.61
2022-10-17T01:32:22.014Z,12.55
2022-10-17T01:37:21.964Z,12.48
2022-10-17T01:42:21.883Z,12.36
2022-10-17T01:47:21.835Z,12.23
2022-10-17T01:52:21.755Z,12.03
2022-10-17T01:57:21.727Z,11.99
2022-10-17T02:02:21.647Z,11.82
2022-10-17T02:07:21.565Z,11.74
2022-10-17T02:12:21.508Z,11.71
2022-10-17T02:17:21.439Z,11.71
2022-10-17T02:22:21.376Z,11.67
2022-10-17T02:27:21.318Z,11.62
2022-10-17T02:37:21.178Z,11.52
2022-10-17T02:42:21.130Z,11.58
2022-10-17T02:47:21.052Z,11.48
2022-10-17T02:52:20.989Z,11.43
2022-10-17T02:57:20.927Z,11.28
2022-10-17T03:02:20.860Z,11.22
2022-10-17T03:07:20.812Z,11.30
2022-10-17T03:12:21.701Z,11.37
2022-10-17T03:17:20.671Z,11.31
2022-10-17T03:22:20.602Z,11.23
2022-10-17T03:27:20.570Z,11.04
2022-10-17T03:32:20.485Z,10.91
2022-10-17T03:37:20.424Z,10.79
2022-10-17T03:42:20.352Z,10.76
2022-10-17T03:47:20.296Z,10.65
2022-10-17T03:52:20.253Z,10.60
2022-10-17T03:57:20.176Z,10.46
2022-10-17T04:02:20.125Z,10.45
2022-10-17T04:07:20.115Z,10.38
2022-10-17T04:12:19.994Z,10.30
2022-10-17T04:17:19.917Z,10.16
2022-10-17T04:22:19.837Z,10.03
2022-10-17T04:27:19.786Z,10.01
2022-10-17T04:32:19.737Z,10.02
2022-10-17T04:37:19.654Z,10.01
2022-10-17T04:42:19.598Z,9.99
2022-10-17T04:47:19.548Z,9.94
2022-10-17T04:52:19.457Z,9.98
2022-10-17T04:57:19.398Z,10.05
2022-10-17T05:02:19.349Z,10.12
2022-10-17T05:07:19.271Z,10.12
2022-10-17T05:12:19.216Z,10.03
2022-10-17T05:17:19.141Z,9.93
2022-10-17T05:22:19.081Z,9.81
2022-10-17T05:27:19.033Z,9.69
2022-10-17T05:32:18.945Z,9.51
2022-10-17T05:37:18.892Z,9.50
2022-10-17T05:42:18.827Z,9.44
2022-10-17T05:47:18.751Z,9.40
2022-10-17T05:52:18.767Z,9.42
2022-10-17T05:57:18.631Z,9.44
2022-10-17T06:02:18.707Z,9.51
2022-10-17T06:07:18.491Z,9.52
2022-10-17T06:12:18.445Z,9.63
2022-10-17T06:17:18.422Z,9.63
2022-10-17T06:22:18.332Z,9.72
2022-10-17T06:27:18.255Z,9.83
2022-10-17T06:32:18.183Z,10.01
2022-10-17T06:37:18.134Z,10.27
2022-10-17T06:42:18.053Z,10.75
2022-10-17T06:47:19.992Z,11.00
2022-10-17T06:52:17.944Z,11.30
2022-10-17T06:57:17.888Z,11.70
2022-10-17T07:02:17.805Z,11.99
2022-10-17T07:07:17.755Z,12.07
2022-10-17T07:12:17.675Z,12.29
2022-10-17T07:17:17.627Z,12.44
2022-10-17T07:22:17.548Z,12.71
2022-10-17T07:27:17.487Z,12.95
2022-10-17T07:32:17.426Z,13.16
2022-10-17T07:37:17.381Z,13.13
2022-10-17T07:42:17.309Z,13.40
2022-10-17T07:47:17.240Z,13.55
2022-10-17T07:52:17.178Z,13.73
2022-10-17T07:57:17.117Z,13.72
2022-10-17T08:02:17.021Z,13.91
2022-10-17T08:07:24.141Z,14.18
2022-10-17T08:12:17.911Z,14.34
2022-10-17T08:17:16.865Z,14.49
2022-10-17T08:22:16.787Z,14.49
2022-10-17T08:27:16.711Z,14.78
2022-10-17T08:32:16.685Z,15.05
2022-10-17T08:37:16.600Z,15.19
2022-10-17T08:42:16.523Z,15.51
2022-10-17T08:47:16.453Z,15.90
2022-10-17T08:52:16.406Z,16.08
2022-10-17T08:57:16.347Z,16.17
2022-10-17T09:02:16.256Z,16.33
2022-10-17T09:07:16.216Z,16.55
2022-10-17T09:12:16.155Z,16.87
2022-10-17T09:17:16.087Z,17.10
2022-10-17T09:22:16.039Z,17.30
2022-10-17T09:27:15.969Z,17.41
2022-10-17T09:32:15.873Z,17.71
2022-10-17T09:37:15.833Z,17.93
2022-10-17T09:42:15.762Z,18.06
2022-10-17T09:47:15.701Z,18.18
2022-10-17T09:52:15.635Z,18.66
2022-10-17T09:57:15.575Z,18.75
2022-10-17T10:02:15.503Z,19.07
2022-10-17T10:07:15.455Z,19.19
2022-10-17T10:12:15.416Z,19.26
2022-10-17T10:17:15.325Z,19.44
2022-10-17T10:22:15.260Z,19.71
2022-10-17T10:27:15.193Z,19.87
2022-10-17T10:32:15.120Z,19.94
2022-10-17T10:37:17.013Z,20.17
2022-10-17T10:42:14.981Z,20.41
2022-10-17T10:47:14.952Z,20.77
2022-10-17T10:52:14.875Z,20.93
2022-10-17T10:57:14.804Z,21.16
2022-10-17T11:02:14.755Z,21.30
2022-10-17T11:07:14.686Z,21.45
2022-10-17T11:12:14.597Z,21.53
2022-10-17T11:17:14.566Z,21.67
2022-10-17T11:22:14.517Z,21.97
2022-10-17T11:27:14.456Z,22.01
2022-10-17T11:32:14.371Z,22.27
2022-10-17T11:37:14.291Z,22.21
2022-10-17T11:42:14.240Z,22.43
2022-10-17T11:47:14.194Z,22.44
2022-10-17T11:52:22.795Z,22.56
2022-10-17T11:57:15.055Z,22.80
2022-10-17T12:02:13.995Z,22.95
2022-10-17T12:07:13.917Z,22.95
2022-10-17T12:12:13.848Z,22.83
2022-10-17T12:17:13.798Z,22.92
2022-10-17T12:22:13.739Z,23.13
2022-10-17T12:27:13.673Z,23.36
2022-10-17T12:32:13.581Z,23.49
2022-10-17T12:37:13.537Z,23.70
2022-10-17T12:42:13.473Z,23.67
2022-10-17T12:47:13.423Z,23.70
2022-10-17T12:52:13.348Z,23.76
2022-10-17T12:57:13.325Z,23.70
2022-10-17T13:02:13.240Z,23.51
2022-10-17T13:07:13.190Z,23.36
2022-10-17T13:12:13.111Z,23.23
2022-10-17T13:17:13.059Z,23.23
2022-10-17T13:22:12.987Z,23.21
2022-10-17T13:27:12.923Z,23.15
2022-10-17T13:32:12.883Z,23.14
2022-10-17T13:37:12.815Z,23.18
2022-10-17T13:42:12.726Z,23.25
2022-10-17T13:47:12.706Z,23.11
2022-10-17T13:52:12.939Z,22.99
2022-10-17T13:57:12.539Z,22.95
2022-10-17T14:02:12.496Z,22.85
2022-10-17T14:07:12.453Z,22.76
2022-10-17T14:12:12.372Z,22.78
2022-10-17T14:17:12.359Z,22.77
2022-10-17T14:22:12.225Z,22.78
2022-10-17T14:27:12.227Z,22.85
2022-10-17T14:32:12.107Z,22.81
2022-10-17T14:37:12.128Z,22.78
2022-10-17T14:42:11.997Z,22.88
2022-10-17T14:47:41.686Z,22.86
2022-10-17T14:52:16.769Z,22.91
2022-10-17T14:57:11.846Z,22.88
2022-10-17T15:02:11.730Z,22.89
2022-10-17T15:07:11.734Z,22.81
2022-10-17T15:12:11.596Z,22.74
2022-10-17T15:17:11.611Z,22.62
2022-10-17T15:22:11.478Z,22.48
2022-10-17T15:27:11.510Z,22.28
2022-10-17T15:32:11.338Z,22.03
2022-10-17T15:37:11.277Z,21.78
2022-10-17T15:42:11.204Z,21.66
2022-10-17T15:47:11.168Z,21.53
2022-10-17T15:52:11.121Z,21.35
2022-10-17T15:57:11.013Z,21.13
2022-10-17T16:02:10.947Z,20.98
2022-10-17T16:07:10.894Z,20.82
2022-10-17T16:12:10.949Z,20.60
2022-10-17T16:17:10.759Z,20.33
2022-10-17T16:22:10.711Z,20.08
2022-10-17T16:27:10.638Z,19.77
2022-10-17T16:32:10.572Z,19.39
2022-10-17T16:37:10.530Z,19.07
2022-10-17T16:42:10.449Z,18.85
2022-10-17T16:47:10.362Z,18.70
2022-10-17T16:52:10.323Z,18.54
2022-10-17T16:57:10.318Z,18.39
2022-10-17T17:02:10.211Z,18.03
2022-10-17T17:07:10.147Z,17.66
2022-10-17T17:12:10.071Z,17.35
2022-10-17T17:17:15.483Z,17.06
2022-10-17T17:22:10.966Z,16.69
2022-10-17T17:27:12.721Z,16.46
2022-10-17T17:32:09.817Z,16.37
2022-10-17T17:37:09.773Z,16.10
2022-10-17T17:42:09.710Z,15.98
2022-10-17T17:47:09.621Z,15.84
2022-10-17T17:52:09.564Z,15.84
2022-10-17T17:57:09.483Z,15.77
2022-10-17T18:02:09.487Z,15.73
2022-10-17T18:07:09.668Z,15.70
2022-10-17T18:12:09.313Z,15.58
2022-10-17T18:17:09.252Z,15.48
2022-10-17T18:22:09.175Z,15.33
2022-10-17T18:27:09.116Z,15.20
2022-10-17T18:32:09.050Z,15.10
2022-10-17T18:37:09.305Z,14.87
2022-10-17T18:42:08.978Z,14.64
2022-10-17T18:47:08.853Z,14.58
2022-10-17T18:52:08.801Z,14.53
2022-10-17T18:57:08.730Z,14.34
2022-10-17T19:02:08.677Z,14.31
2022-10-17T19:07:08.611Z,14.22
2022-10-17T19:12:08.552Z,14.11
2022-10-17T19:17:08.503Z,14.01
2022-10-17T19:22:08.428Z,13.88
2022-10-17T19:27:08.352Z,13.76
2022-10-17T19:32:11.984Z,13.63
2022-10-17T19:37:09.224Z,13.64
2022-10-17T19:42:08.164Z,13.46
2022-10-17T19:47:08.096Z,13.38
2022-10-17T19:52:08.047Z,13.23
2022-10-17T19:57:10.352Z,13.16
2022-10-17T20:02:07.908Z,13.05
2022-10-17T20:07:07.851Z,12.98
2022-10-17T20:12:07.785Z,12.87
2022-10-17T20:17:07.718Z,12.81
2022-10-17T20:22:07.649Z,12.76
2022-10-17T20:27:07.589Z,12.72
2022-10-17T20:32:07.539Z,12.76
2022-10-17T20:37:07.471Z,12.76
2022-10-17T20:42:07.399Z,12.66
2022-10-17T20:47:15.917Z,12.47
2022-10-17T20:52:08.279Z,12.44
2022-10-17T20:57:07.212Z,12.47
2022-10-17T21:02:07.163Z,12.35
2022-10-17T21:07:07.086Z,12.33
2022-10-17T21:12:07.022Z,12.28
2022-10-17T21:17:06.988Z,12.14
2022-10-17T21:22:06.899Z,12.04
2022-10-17T21:27:06.825Z,11.95
2022-10-17T21:32:14.604Z,11.89
2022-10-17T21:37:07.729Z,11.79
2022-10-17T21:42:06.647Z,11.73
2022-10-17T21:47:06.576Z,11.67
2022-10-17T21:52:06.529Z,11.58
2022-10-17T21:57:06.503Z,11.56
2022-10-17T22:02:06.505Z,11.55
2022-10-17T22:07:06.318Z,11.51
2022-10-17T22:12:06.286Z,11.38
2022-10-17T22:17:06.200Z,11.30
2022-10-17T22:22:06.135Z,11.31
2022-10-17T22:27:06.069Z,11.31
2022-10-17T22:32:05.998Z,11.33
2022-10-17T22:37:05.939Z,11.30
2022-10-17T22:42:05.880Z,11.27
2022-10-17T22:47:05.820Z,11.25
2022-10-17T22:52:05.753Z,11.27
2022-10-17T22:57:05.686Z,11.27
2022-10-17T23:02:05.659Z,11.28
2022-10-17T23:07:05.552Z,11.19
2022-10-17T23:12:05.493Z,11.01
2022-10-17T23:17:05.422Z,10.95
2022-10-17T23:22:05.374Z,10.93
2022-10-17T23:27:05.304Z,10.85
2022-10-17T23:32:05.257Z,10.79
2022-10-17T23:37:05.183Z,10.80
2022-10-17T23:42:05.115Z,10.78
2022-10-17T23:47:05.051Z,10.76
2022-10-17T23:52:04.985Z,10.67
2022-10-17T23:57:04.949Z,10.76
